sensor_id;sensor_type;location;lat;lon;timestamp;P1;durP1;ratioP1;P2;durP2;ratioP2
80157;SDS011;74139;59.092;37.932;2023-12-20T00:01:35;0.10;;;0.10;;
80157;SDS011;74139;59.092;37.932;2023-12-20T00:04:04;0.38;;;0.20;;
80157;SDS011;74139;59.092;37.932;2023-12-20T00:06:30;0.28;;;0.20;;
80157;SDS011;74139;59.092;37.932;2023-12-20T00:09:01;0.25;;;0.17;;
80157;SDS011;74139;59.092;37.932;2023-12-20T00:11:27;0.10;;;0.10;;
80157;SDS011;74139;59.092;37.932;2023-12-20T00:13:53;0.35;;;0.20;;
80157;SDS011;74139;59.092;37.932;2023-12-20T00:16:19;0.20;;;0.10;;
80157;SDS011;74139;59.092;37.932;2023-12-20T00:18:44;0.20;;;0.10;;
80157;SDS011;74139;59.092;37.932;2023-12-20T00:21:11;0.25;;;0.10;;
80157;SDS011;74139;59.092;37.932;2023-12-20T00:23:37;0.20;;;0.10;;
80157;SDS011;74139;59.092;37.932;2023-12-20T00:26:02;0.10;;;0.10;;
80157;SDS011;74139;59.092;37.932;2023-12-20T00:28:28;0.10;;;0.00;;
80157;SDS011;74139;59.092;37.932;2023-12-20T00:30:54;0.10;;;0.10;;
80157;SDS011;74139;59.092;37.932;2023-12-20T00:33:20;0.00;;;0.00;;
80157;SDS011;74139;59.092;37.932;2023-12-20T00:35:46;0.20;;;0.20;;
80157;SDS011;74139;59.092;37.932;2023-12-20T00:38:12;0.10;;;0.10;;
80157;SDS011;74139;59.092;37.932;2023-12-20T00:40:38;0.00;;;0.00;;
80157;SDS011;74139;59.092;37.932;2023-12-20T00:43:04;0.00;;;0.00;;
80157;SDS011;74139;59.092;37.932;2023-12-20T00:45:29;0.00;;;0.00;;
80157;SDS011;74139;59.092;37.932;2023-12-20T00:47:55;0.05;;;0.00;;
80157;SDS011;74139;59.092;37.932;2023-12-20T00:50:21;0.10;;;0.10;;
80157;SDS011;74139;59.092;37.932;2023-12-20T00:52:47;0.17;;;0.05;;
80157;SDS011;74139;59.092;37.932;2023-12-20T00:55:13;0.30;;;0.13;;
80157;SDS011;74139;59.092;37.932;2023-12-20T00:57:39;0.10;;;0.10;;
80157;SDS011;74139;59.092;37.932;2023-12-20T01:00:05;0.03;;;0.00;;
80157;SDS011;74139;59.092;37.932;2023-12-20T01:02:31;0.38;;;0.08;;
80157;SDS011;74139;59.092;37.932;2023-12-20T01:04:57;0.50;;;0.10;;
80157;SDS011;74139;59.092;37.932;2023-12-20T01:07:23;0.10;;;0.08;;
80157;SDS011;74139;59.092;37.932;2023-12-20T01:09:48;0.40;;;0.10;;
80157;SDS011;74139;59.092;37.932;2023-12-20T01:12:14;0.10;;;0.00;;
80157;SDS011;74139;59.092;37.932;2023-12-20T01:14:40;0.20;;;0.10;;
80157;SDS011;74139;59.092;37.932;2023-12-20T01:17:06;0.20;;;0.10;;
80157;SDS011;74139;59.092;37.932;2023-12-20T01:19:32;0.20;;;0.10;;
80157;SDS011;74139;59.092;37.932;2023-12-20T01:21:58;0.30;;;0.10;;
80157;SDS011;74139;59.092;37.932;2023-12-20T01:24:23;0.32;;;0.20;;
80157;SDS011;74139;59.092;37.932;2023-12-20T01:26:49;0.20;;;0.10;;
80157;SDS011;74139;59.092;37.932;2023-12-20T01:29:15;0.10;;;0.10;;
80157;SDS011;74139;59.092;37.932;2023-12-20T01:31:41;0.57;;;0.10;;
80157;SDS011;74139;59.092;37.932;2023-12-20T01:34:07;1.13;;;0.10;;
80157;SDS011;74139;59.092;37.932;2023-12-20T01:36:33;0.10;;;0.10;;
80157;SDS011;74139;59.092;37.932;2023-12-20T01:38:59;0.40;;;0.10;;
80157;SDS011;74139;59.092;37.932;2023-12-20T01:41:24;0.30;;;0.10;;
80157;SDS011;74139;59.092;37.932;2023-12-20T01:43:50;0.50;;;0.10;;
80157;SDS011;74139;59.092;37.932;2023-12-20T01:46:16;0.13;;;0.08;;
80157;SDS011;74139;59.092;37.932;2023-12-20T01:48:42;0.20;;;0.05;;
80157;SDS011;74139;59.092;37.932;2023-12-20T01:51:08;0.05;;;0.05;;
80157;SDS011;74139;59.092;37.932;2023-12-20T01:53:34;0.15;;;0.10;;
80157;SDS011;74139;59.092;37.932;2023-12-20T01:56:00;0.35;;;0.00;;
80157;SDS011;74139;59.092;37.932;2023-12-20T01:58:26;0.93;;;0.22;;
80157;SDS011;74139;59.092;37.932;2023-12-20T02:00:53;0.20;;;0.00;;
80157;SDS011;74139;59.092;37.932;2023-12-20T02:03:19;0.25;;;0.10;;
80157;SDS011;74139;59.092;37.932;2023-12-20T02:05:46;0.10;;;0.10;;
80157;SDS011;74139;59.092;37.932;2023-12-20T02:08:12;0.08;;;0.08;;
80157;SDS011;74139;59.092;37.932;2023-12-20T02:10:38;0.10;;;0.10;;
80157;SDS011;74139;59.092;37.932;2023-12-20T02:13:04;0.00;;;0.00;;
80157;SDS011;74139;59.092;37.932;2023-12-20T02:15:30;0.10;;;0.10;;
80157;SDS011;74139;59.092;37.932;2023-12-20T02:17:56;0.15;;;0.10;;
80157;SDS011;74139;59.092;37.932;2023-12-20T02:20:22;0.00;;;0.00;;
80157;SDS011;74139;59.092;37.932;2023-12-20T02:22:48;0.00;;;0.00;;
80157;SDS011;74139;59.092;37.932;2023-12-20T02:25:14;0.00;;;0.00;;
80157;SDS011;74139;59.092;37.932;2023-12-20T02:27:40;0.22;;;0.10;;
80157;SDS011;74139;59.092;37.932;2023-12-20T02:30:06;0.40;;;0.20;;
80157;SDS011;74139;59.092;37.932;2023-12-20T02:32:32;0.20;;;0.10;;
80157;SDS011;74139;59.092;37.932;2023-12-20T02:34:58;0.35;;;0.20;;
80157;SDS011;74139;59.092;37.932;2023-12-20T02:37:24;0.30;;;0.05;;
80157;SDS011;74139;59.092;37.932;2023-12-20T02:39:49;0.10;;;0.08;;
80157;SDS011;74139;59.092;37.932;2023-12-20T02:42:15;0.20;;;0.10;;
80157;SDS011;74139;59.092;37.932;2023-12-20T02:44:41;0.30;;;0.10;;
80157;SDS011;74139;59.092;37.932;2023-12-20T02:47:07;0.20;;;0.05;;
80157;SDS011;74139;59.092;37.932;2023-12-20T02:49:33;1.95;;;0.17;;
80157;SDS011;74139;59.092;37.932;2023-12-20T02:51:59;2.03;;;0.22;;
80157;SDS011;74139;59.092;37.932;2023-12-20T02:54:24;0.38;;;0.10;;
80157;SDS011;74139;59.092;37.932;2023-12-20T02:56:50;0.22;;;0.10;;
80157;SDS011;74139;59.092;37.932;2023-12-20T02:59:16;0.45;;;0.20;;
80157;SDS011;74139;59.092;37.932;2023-12-20T03:01:43;0.73;;;0.10;;
80157;SDS011;74139;59.092;37.932;2023-12-20T03:04:09;0.15;;;0.10;;
80157;SDS011;74139;59.092;37.932;2023-12-20T03:06:34;0.70;;;0.10;;
80157;SDS011;74139;59.092;37.932;2023-12-20T03:09:00;1.80;;;0.17;;
80157;SDS011;74139;59.092;37.932;2023-12-20T03:11:26;0.20;;;0.17;;
80157;SDS011;74139;59.092;37.932;2023-12-20T03:13:53;0.40;;;0.13;;
80157;SDS011;74139;59.092;37.932;2023-12-20T03:16:18;0.15;;;0.10;;
80157;SDS011;74139;59.092;37.932;2023-12-20T03:18:44;0.20;;;0.15;;
80157;SDS011;74139;59.092;37.932;2023-12-20T03:21:10;0.20;;;0.10;;
80157;SDS011;74139;59.092;37.932;2023-12-20T03:23:36;0.30;;;0.20;;
80157;SDS011;74139;59.092;37.932;2023-12-20T03:26:01;0.95;;;0.22;;
80157;SDS011;74139;59.092;37.932;2023-12-20T03:28:31;0.00;;;0.00;;
80157;SDS011;74139;59.092;37.932;2023-12-20T03:30:57;0.30;;;0.10;;
80157;SDS011;74139;59.092;37.932;2023-12-20T03:33:23;0.10;;;0.10;;
80157;SDS011;74139;59.092;37.932;2023-12-20T03:35:48;0.13;;;0.10;;
80157;SDS011;74139;59.092;37.932;2023-12-20T03:38:14;0.15;;;0.10;;
80157;SDS011;74139;59.092;37.932;2023-12-20T03:40:40;0.17;;;0.10;;
80157;SDS011;74139;59.092;37.932;2023-12-20T03:43:06;0.13;;;0.10;;
80157;SDS011;74139;59.092;37.932;2023-12-20T03:45:31;1.77;;;0.13;;
80157;SDS011;74139;59.092;37.932;2023-12-20T03:47:57;0.03;;;0.03;;
80157;SDS011;74139;59.092;37.932;2023-12-20T03:50:23;0.47;;;0.15;;
80157;SDS011;74139;59.092;37.932;2023-12-20T03:52:49;0.30;;;0.10;;
80157;SDS011;74139;59.092;37.932;2023-12-20T03:55:15;0.30;;;0.10;;
80157;SDS011;74139;59.092;37.932;2023-12-20T03:57:41;0.35;;;0.20;;
80157;SDS011;74139;59.092;37.932;2023-12-20T04:00:07;0.22;;;0.10;;
80157;SDS011;74139;59.092;37.932;2023-12-20T04:02:36;0.52;;;0.10;;
80157;SDS011;74139;59.092;37.932;2023-12-20T04:05:02;1.00;;;0.30;;
80157;SDS011;74139;59.092;37.932;2023-12-20T04:07:28;0.10;;;0.10;;
80157;SDS011;74139;59.092;37.932;2023-12-20T04:09:54;0.43;;;0.20;;
80157;SDS011;74139;59.092;37.932;2023-12-20T04:12:19;0.20;;;0.10;;
80157;SDS011;74139;59.092;37.932;2023-12-20T04:14:45;0.10;;;0.10;;
80157;SDS011;74139;59.092;37.932;2023-12-20T04:17:11;0.20;;;0.20;;
80157;SDS011;74139;59.092;37.932;2023-12-20T04:19:37;0.60;;;0.17;;
80157;SDS011;74139;59.092;37.932;2023-12-20T04:22:02;0.10;;;0.10;;
80157;SDS011;74139;59.092;37.932;2023-12-20T04:24:28;0.30;;;0.10;;
80157;SDS011;74139;59.092;37.932;2023-12-20T04:26:54;0.25;;;0.10;;
80157;SDS011;74139;59.092;37.932;2023-12-20T04:29:20;0.20;;;0.08;;
80157;SDS011;74139;59.092;37.932;2023-12-20T04:31:46;0.28;;;0.10;;
80157;SDS011;74139;59.092;37.932;2023-12-20T04:34:12;0.88;;;0.17;;
80157;SDS011;74139;59.092;37.932;2023-12-20T04:36:37;0.20;;;0.13;;
80157;SDS011;74139;59.092;37.932;2023-12-20T04:39:03;0.08;;;0.08;;
80157;SDS011;74139;59.092;37.932;2023-12-20T04:41:29;0.38;;;0.10;;
80157;SDS011;74139;59.092;37.932;2023-12-20T04:43:55;0.00;;;0.00;;
80157;SDS011;74139;59.092;37.932;2023-12-20T04:46:21;0.30;;;0.00;;
80157;SDS011;74139;59.092;37.932;2023-12-20T04:48:46;0.40;;;0.30;;
80157;SDS011;74139;59.092;37.932;2023-12-20T04:51:12;0.00;;;0.00;;
80157;SDS011;74139;59.092;37.932;2023-12-20T04:53:38;0.32;;;0.00;;
80157;SDS011;74139;59.092;37.932;2023-12-20T04:56:04;0.40;;;0.03;;
80157;SDS011;74139;59.092;37.932;2023-12-20T04:58:30;0.22;;;0.10;;
80157;SDS011;74139;59.092;37.932;2023-12-20T05:00:55;0.08;;;0.00;;
80157;SDS011;74139;59.092;37.932;2023-12-20T05:03:21;0.10;;;0.00;;
80157;SDS011;74139;59.092;37.932;2023-12-20T05:05:47;0.40;;;0.20;;
80157;SDS011;74139;59.092;37.932;2023-12-20T05:08:13;1.20;;;0.15;;
80157;SDS011;74139;59.092;37.932;2023-12-20T05:10:39;0.20;;;0.10;;
80157;SDS011;74139;59.092;37.932;2023-12-20T05:13:05;0.28;;;0.00;;
80157;SDS011;74139;59.092;37.932;2023-12-20T05:15:32;0.10;;;0.10;;
80157;SDS011;74139;59.092;37.932;2023-12-20T05:17:58;0.20;;;0.10;;
80157;SDS011;74139;59.092;37.932;2023-12-20T05:20:23;1.08;;;0.15;;
80157;SDS011;74139;59.092;37.932;2023-12-20T05:22:49;0.13;;;0.10;;
80157;SDS011;74139;59.092;37.932;2023-12-20T05:25:15;0.20;;;0.20;;
80157;SDS011;74139;59.092;37.932;2023-12-20T05:27:41;0.00;;;0.00;;
80157;SDS011;74139;59.092;37.932;2023-12-20T05:30:07;0.03;;;0.03;;
80157;SDS011;74139;59.092;37.932;2023-12-20T05:32:33;0.20;;;0.10;;
80157;SDS011;74139;59.092;37.932;2023-12-20T05:34:59;1.45;;;0.17;;
80157;SDS011;74139;59.092;37.932;2023-12-20T05:37:24;1.42;;;0.17;;
80157;SDS011;74139;59.092;37.932;2023-12-20T05:39:51;0.35;;;0.10;;
80157;SDS011;74139;59.092;37.932;2023-12-20T05:42:16;0.30;;;0.10;;
80157;SDS011;74139;59.092;37.932;2023-12-20T05:44:42;0.10;;;0.10;;
80157;SDS011;74139;59.092;37.932;2023-12-20T05:47:08;0.28;;;0.10;;
80157;SDS011;74139;59.092;37.932;2023-12-20T05:49:34;0.13;;;0.10;;
80157;SDS011;74139;59.092;37.932;2023-12-20T05:51:59;0.25;;;0.13;;
80157;SDS011;74139;59.092;37.932;2023-12-20T05:54:25;0.13;;;0.08;;
80157;SDS011;74139;59.092;37.932;2023-12-20T05:56:51;0.47;;;0.10;;
80157;SDS011;74139;59.092;37.932;2023-12-20T05:59:17;1.45;;;0.20;;
80157;SDS011;74139;59.092;37.932;2023-12-20T06:01:43;0.00;;;0.00;;
80157;SDS011;74139;59.092;37.932;2023-12-20T06:04:09;0.57;;;0.10;;
80157;SDS011;74139;59.092;37.932;2023-12-20T06:06:39;0.43;;;0.20;;
80157;SDS011;74139;59.092;37.932;2023-12-20T06:09:05;0.95;;;0.20;;
80157;SDS011;74139;59.092;37.932;2023-12-20T06:11:31;1.35;;;0.10;;
80157;SDS011;74139;59.092;37.932;2023-12-20T06:13:57;0.95;;;0.20;;
80157;SDS011;74139;59.092;37.932;2023-12-20T06:16:23;0.10;;;0.00;;
80157;SDS011;74139;59.092;37.932;2023-12-20T06:18:48;0.20;;;0.10;;
80157;SDS011;74139;59.092;37.932;2023-12-20T06:21:14;0.20;;;0.10;;
80157;SDS011;74139;59.092;37.932;2023-12-20T06:23:40;0.03;;;0.03;;
80157;SDS011;74139;59.092;37.932;2023-12-20T06:26:06;0.10;;;0.10;;
80157;SDS011;74139;59.092;37.932;2023-12-20T06:28:32;0.35;;;0.20;;
80157;SDS011;74139;59.092;37.932;2023-12-20T06:30:58;1.30;;;0.20;;
80157;SDS011;74139;59.092;37.932;2023-12-20T06:33:24;1.33;;;0.20;;
80157;SDS011;74139;59.092;37.932;2023-12-20T06:35:50;0.10;;;0.05;;
80157;SDS011;74139;59.092;37.932;2023-12-20T06:38:17;0.52;;;0.30;;
80157;SDS011;74139;59.092;37.932;2023-12-20T06:40:43;0.85;;;0.10;;
80157;SDS011;74139;59.092;37.932;2023-12-20T06:43:09;0.95;;;0.17;;
80157;SDS011;74139;59.092;37.932;2023-12-20T06:45:35;0.70;;;0.30;;
80157;SDS011;74139;59.092;37.932;2023-12-20T06:48:01;0.10;;;0.10;;
80157;SDS011;74139;59.092;37.932;2023-12-20T06:50:27;0.75;;;0.20;;
80157;SDS011;74139;59.092;37.932;2023-12-20T06:52:53;1.67;;;0.20;;
80157;SDS011;74139;59.092;37.932;2023-12-20T06:55:19;0.08;;;0.08;;
80157;SDS011;74139;59.092;37.932;2023-12-20T06:57:45;0.52;;;0.10;;
80157;SDS011;74139;59.092;37.932;2023-12-20T07:00:11;0.70;;;0.20;;
80157;SDS011;74139;59.092;37.932;2023-12-20T07:02:38;0.20;;;0.10;;
80157;SDS011;74139;59.092;37.932;2023-12-20T07:05:04;0.10;;;0.10;;
80157;SDS011;74139;59.092;37.932;2023-12-20T07:07:30;0.20;;;0.10;;
80157;SDS011;74139;59.092;37.932;2023-12-20T07:09:56;0.50;;;0.10;;
80157;SDS011;74139;59.092;37.932;2023-12-20T07:12:22;0.43;;;0.20;;
80157;SDS011;74139;59.092;37.932;2023-12-20T07:14:48;0.32;;;0.10;;
80157;SDS011;74139;59.092;37.932;2023-12-20T07:17:14;0.43;;;0.20;;
80157;SDS011;74139;59.092;37.932;2023-12-20T07:19:41;0.00;;;0.00;;
80157;SDS011;74139;59.092;37.932;2023-12-20T07:24:33;0.25;;;0.10;;
80157;SDS011;74139;59.092;37.932;2023-12-20T07:26:59;0.20;;;0.10;;
80157;SDS011;74139;59.092;37.932;2023-12-20T07:29:25;0.00;;;0.00;;
80157;SDS011;74139;59.092;37.932;2023-12-20T07:31:55;0.35;;;0.20;;
80157;SDS011;74139;59.092;37.932;2023-12-20T07:34:21;0.08;;;0.05;;
80157;SDS011;74139;59.092;37.932;2023-12-20T07:36:47;0.20;;;0.00;;
80157;SDS011;74139;59.092;37.932;2023-12-20T07:39:13;0.43;;;0.20;;
80157;SDS011;74139;59.092;37.932;2023-12-20T07:41:39;0.13;;;0.10;;
80157;SDS011;74139;59.092;37.932;2023-12-20T07:44:06;0.25;;;0.20;;
80157;SDS011;74139;59.092;37.932;2023-12-20T07:46:32;0.73;;;0.10;;
80157;SDS011;74139;59.092;37.932;2023-12-20T07:48:58;0.47;;;0.10;;
80157;SDS011;74139;59.092;37.932;2023-12-20T07:51:24;0.85;;;0.10;;
80157;SDS011;74139;59.092;37.932;2023-12-20T07:53:51;0.80;;;0.28;;
80157;SDS011;74139;59.092;37.932;2023-12-20T07:56:18;0.50;;;0.10;;
80157;SDS011;74139;59.092;37.932;2023-12-20T08:01:10;0.13;;;0.10;;
80157;SDS011;74139;59.092;37.932;2023-12-20T08:03:36;0.45;;;0.20;;
80157;SDS011;74139;59.092;37.932;2023-12-20T08:06:02;0.52;;;0.10;;
80157;SDS011;74139;59.092;37.932;2023-12-20T08:08:28;1.48;;;0.20;;
80157;SDS011;74139;59.092;37.932;2023-12-20T08:10:54;0.75;;;0.10;;
80157;SDS011;74139;59.092;37.932;2023-12-20T08:13:20;0.20;;;0.10;;
80157;SDS011;74139;59.092;37.932;2023-12-20T08:15:55;0.55;;;0.13;;
80157;SDS011;74139;59.092;37.932;2023-12-20T08:18:21;0.70;;;0.13;;
80157;SDS011;74139;59.092;37.932;2023-12-20T08:20:48;0.20;;;0.10;;
80157;SDS011;74139;59.092;37.932;2023-12-20T08:23:14;0.00;;;0.00;;
80157;SDS011;74139;59.092;37.932;2023-12-20T08:25:41;0.30;;;0.20;;
80157;SDS011;74139;59.092;37.932;2023-12-20T08:28:07;0.68;;;0.20;;
80157;SDS011;74139;59.092;37.932;2023-12-20T08:30:33;2.25;;;0.20;;
80157;SDS011;74139;59.092;37.932;2023-12-20T08:33:02;0.45;;;0.20;;
80157;SDS011;74139;59.092;37.932;2023-12-20T08:35:28;0.32;;;0.17;;
80157;SDS011;74139;59.092;37.932;2023-12-20T08:37:54;0.10;;;0.10;;
80157;SDS011;74139;59.092;37.932;2023-12-20T08:40:20;0.30;;;0.20;;
80157;SDS011;74139;59.092;37.932;2023-12-20T08:42:46;0.38;;;0.20;;
80157;SDS011;74139;59.092;37.932;2023-12-20T08:45:12;0.10;;;0.10;;
80157;SDS011;74139;59.092;37.932;2023-12-20T08:47:38;0.28;;;0.20;;
80157;SDS011;74139;59.092;37.932;2023-12-20T08:50:04;0.47;;;0.20;;
80157;SDS011;74139;59.092;37.932;2023-12-20T08:52:30;0.43;;;0.20;;
80157;SDS011;74139;59.092;37.932;2023-12-20T08:54:56;1.00;;;0.20;;
80157;SDS011;74139;59.092;37.932;2023-12-20T08:57:22;0.52;;;0.10;;
80157;SDS011;74139;59.092;37.932;2023-12-20T08:59:51;0.77;;;0.20;;
80157;SDS011;74139;59.092;37.932;2023-12-20T09:02:17;0.47;;;0.30;;
80157;SDS011;74139;59.092;37.932;2023-12-20T09:04:43;0.25;;;0.10;;
80157;SDS011;74139;59.092;37.932;2023-12-20T09:07:22;0.50;;;0.20;;
80157;SDS011;74139;59.092;37.932;2023-12-20T09:09:48;0.08;;;0.03;;
80157;SDS011;74139;59.092;37.932;2023-12-20T09:12:14;0.70;;;0.15;;
80157;SDS011;74139;59.092;37.932;2023-12-20T09:14:40;0.68;;;0.10;;
80157;SDS011;74139;59.092;37.932;2023-12-20T09:17:06;0.50;;;0.15;;
80157;SDS011;74139;59.092;37.932;2023-12-20T09:19:34;0.70;;;0.13;;
80157;SDS011;74139;59.092;37.932;2023-12-20T09:22:00;0.20;;;0.10;;
80157;SDS011;74139;59.092;37.932;2023-12-20T09:24:26;0.30;;;0.13;;
80157;SDS011;74139;59.092;37.932;2023-12-20T09:26:52;0.32;;;0.20;;
80157;SDS011;74139;59.092;37.932;2023-12-20T09:29:18;0.70;;;0.25;;
80157;SDS011;74139;59.092;37.932;2023-12-20T09:31:44;0.82;;;0.20;;
80157;SDS011;74139;59.092;37.932;2023-12-20T09:34:13;1.98;;;0.17;;
80157;SDS011;74139;59.092;37.932;2023-12-20T09:36:39;0.63;;;0.10;;
80157;SDS011;74139;59.092;37.932;2023-12-20T09:39:08;0.57;;;0.15;;
80157;SDS011;74139;59.092;37.932;2023-12-20T09:41:35;0.28;;;0.10;;
80157;SDS011;74139;59.092;37.932;2023-12-20T09:44:02;0.20;;;0.10;;
80157;SDS011;74139;59.092;37.932;2023-12-20T09:46:28;0.20;;;0.10;;
80157;SDS011;74139;59.092;37.932;2023-12-20T09:48:59;1.00;;;0.30;;
80157;SDS011;74139;59.092;37.932;2023-12-20T09:51:29;0.88;;;0.22;;
80157;SDS011;74139;59.092;37.932;2023-12-20T09:53:55;1.08;;;0.40;;
80157;SDS011;74139;59.092;37.932;2023-12-20T09:56:23;0.10;;;0.10;;
80157;SDS011;74139;59.092;37.932;2023-12-20T09:58:49;0.13;;;0.10;;
80157;SDS011;74139;59.092;37.932;2023-12-20T10:01:15;0.93;;;0.10;;
80157;SDS011;74139;59.092;37.932;2023-12-20T10:03:41;0.10;;;0.10;;
80157;SDS011;74139;59.092;37.932;2023-12-20T10:06:08;1.48;;;0.10;;
80157;SDS011;74139;59.092;37.932;2023-12-20T10:08:34;0.30;;;0.20;;
80157;SDS011;74139;59.092;37.932;2023-12-20T10:11:00;1.17;;;0.20;;
80157;SDS011;74139;59.092;37.932;2023-12-20T10:13:28;2.60;;;0.40;;
80157;SDS011;74139;59.092;37.932;2023-12-20T10:15:55;1.55;;;0.25;;
80157;SDS011;74139;59.092;37.932;2023-12-20T10:18:21;1.23;;;0.30;;
80157;SDS011;74139;59.092;37.932;2023-12-20T10:20:47;0.20;;;0.15;;
80157;SDS011;74139;59.092;37.932;2023-12-20T10:23:13;0.45;;;0.15;;
80157;SDS011;74139;59.092;37.932;2023-12-20T10:25:41;1.75;;;0.20;;
80157;SDS011;74139;59.092;37.932;2023-12-20T10:30:36;0.38;;;0.30;;
80157;SDS011;74139;59.092;37.932;2023-12-20T10:33:02;0.95;;;0.20;;
80157;SDS011;74139;59.092;37.932;2023-12-20T10:35:28;0.50;;;0.20;;
80157;SDS011;74139;59.092;37.932;2023-12-20T10:37:55;0.30;;;0.20;;
80157;SDS011;74139;59.092;37.932;2023-12-20T10:40:22;0.30;;;0.20;;
80157;SDS011;74139;59.092;37.932;2023-12-20T10:42:48;0.28;;;0.20;;
80157;SDS011;74139;59.092;37.932;2023-12-20T10:45:15;0.30;;;0.17;;
80157;SDS011;74139;59.092;37.932;2023-12-20T10:47:44;1.00;;;0.22;;
80157;SDS011;74139;59.092;37.932;2023-12-20T10:50:12;0.10;;;0.10;;
80157;SDS011;74139;59.092;37.932;2023-12-20T10:52:38;0.22;;;0.10;;
80157;SDS011;74139;59.092;37.932;2023-12-20T10:55:06;0.60;;;0.30;;
80157;SDS011;74139;59.092;37.932;2023-12-20T10:57:32;0.90;;;0.28;;
80157;SDS011;74139;59.092;37.932;2023-12-20T11:00:00;0.75;;;0.22;;
80157;SDS011;74139;59.092;37.932;2023-12-20T11:02:31;0.38;;;0.10;;
80157;SDS011;74139;59.092;37.932;2023-12-20T11:05:06;0.25;;;0.10;;
80157;SDS011;74139;59.092;37.932;2023-12-20T11:07:37;0.17;;;0.10;;
80157;SDS011;74139;59.092;37.932;2023-12-20T11:10:09;0.73;;;0.20;;
80157;SDS011;74139;59.092;37.932;2023-12-20T11:15:02;1.30;;;0.30;;
80157;SDS011;74139;59.092;37.932;2023-12-20T11:17:31;0.52;;;0.13;;
80157;SDS011;74139;59.092;37.932;2023-12-20T11:22:28;0.25;;;0.10;;
80157;SDS011;74139;59.092;37.932;2023-12-20T11:25:05;0.50;;;0.20;;
80157;SDS011;74139;59.092;37.932;2023-12-20T11:27:35;0.10;;;0.10;;
80157;SDS011;74139;59.092;37.932;2023-12-20T11:30:04;0.60;;;0.28;;
80157;SDS011;74139;59.092;37.932;2023-12-20T11:32:35;1.05;;;0.28;;
80157;SDS011;74139;59.092;37.932;2023-12-20T11:37:45;0.57;;;0.30;;
80157;SDS011;74139;59.092;37.932;2023-12-20T11:40:14;0.55;;;0.13;;
80157;SDS011;74139;59.092;37.932;2023-12-20T11:45:24;0.55;;;0.20;;
80157;SDS011;74139;59.092;37.932;2023-12-20T11:47:50;1.38;;;0.20;;
80157;SDS011;74139;59.092;37.932;2023-12-20T11:50:20;0.52;;;0.10;;
80157;SDS011;74139;59.092;37.932;2023-12-20T11:52:47;1.35;;;0.13;;
80157;SDS011;74139;59.092;37.932;2023-12-20T11:55:13;0.30;;;0.20;;
80157;SDS011;74139;59.092;37.932;2023-12-20T11:57:39;0.52;;;0.20;;
80157;SDS011;74139;59.092;37.932;2023-12-20T12:00:05;0.43;;;0.10;;
80157;SDS011;74139;59.092;37.932;2023-12-20T12:04:57;0.30;;;0.10;;
80157;SDS011;74139;59.092;37.932;2023-12-20T12:07:24;0.55;;;0.20;;
80157;SDS011;74139;59.092;37.932;2023-12-20T12:09:50;0.70;;;0.20;;
80157;SDS011;74139;59.092;37.932;2023-12-20T12:12:16;1.75;;;0.30;;
80157;SDS011;74139;59.092;37.932;2023-12-20T12:14:44;1.95;;;0.20;;
80157;SDS011;74139;59.092;37.932;2023-12-20T12:17:10;0.50;;;0.20;;
80157;SDS011;74139;59.092;37.932;2023-12-20T12:19:37;1.05;;;0.20;;
80157;SDS011;74139;59.092;37.932;2023-12-20T12:22:06;0.35;;;0.10;;
80157;SDS011;74139;59.092;37.932;2023-12-20T12:24:39;0.70;;;0.20;;
80157;SDS011;74139;59.092;37.932;2023-12-20T12:27:06;1.45;;;0.30;;
80157;SDS011;74139;59.092;37.932;2023-12-20T12:29:31;0.20;;;0.20;;
80157;SDS011;74139;59.092;37.932;2023-12-20T12:31:57;1.67;;;0.30;;
80157;SDS011;74139;59.092;37.932;2023-12-20T12:34:23;0.57;;;0.30;;
80157;SDS011;74139;59.092;37.932;2023-12-20T12:36:49;0.10;;;0.10;;
80157;SDS011;74139;59.092;37.932;2023-12-20T12:39:17;1.10;;;0.17;;
80157;SDS011;74139;59.092;37.932;2023-12-20T12:41:43;1.48;;;0.20;;
80157;SDS011;74139;59.092;37.932;2023-12-20T12:44:09;0.68;;;0.20;;
80157;SDS011;74139;59.092;37.932;2023-12-20T12:46:35;1.58;;;0.40;;
80157;SDS011;74139;59.092;37.932;2023-12-20T12:49:01;0.52;;;0.20;;
80157;SDS011;74139;59.092;37.932;2023-12-20T12:51:27;0.40;;;0.15;;
80157;SDS011;74139;59.092;37.932;2023-12-20T12:53:53;0.00;;;0.00;;
80157;SDS011;74139;59.092;37.932;2023-12-20T12:56:19;0.17;;;0.10;;
80157;SDS011;74139;59.092;37.932;2023-12-20T12:58:46;0.28;;;0.10;;
80157;SDS011;74139;59.092;37.932;2023-12-20T13:01:12;1.73;;;0.20;;
80157;SDS011;74139;59.092;37.932;2023-12-20T13:03:38;1.02;;;0.20;;
80157;SDS011;74139;59.092;37.932;2023-12-20T13:06:04;0.38;;;0.20;;
80157;SDS011;74139;59.092;37.932;2023-12-20T13:08:31;0.20;;;0.03;;
80157;SDS011;74139;59.092;37.932;2023-12-20T13:10:57;0.40;;;0.20;;
80157;SDS011;74139;59.092;37.932;2023-12-20T13:13:26;0.50;;;0.20;;
80157;SDS011;74139;59.092;37.932;2023-12-20T13:15:52;0.70;;;0.30;;
80157;SDS011;74139;59.092;37.932;2023-12-20T13:18:21;0.25;;;0.13;;
80157;SDS011;74139;59.092;37.932;2023-12-20T13:20:47;0.28;;;0.10;;
80157;SDS011;74139;59.092;37.932;2023-12-20T13:23:13;0.22;;;0.10;;
80157;SDS011;74139;59.092;37.932;2023-12-20T13:25:39;0.38;;;0.13;;
80157;SDS011;74139;59.092;37.932;2023-12-20T13:28:05;0.43;;;0.22;;
80157;SDS011;74139;59.092;37.932;2023-12-20T13:30:31;0.40;;;0.15;;
80157;SDS011;74139;59.092;37.932;2023-12-20T13:32:57;0.45;;;0.25;;
80157;SDS011;74139;59.092;37.932;2023-12-20T13:35:23;0.30;;;0.20;;
80157;SDS011;74139;59.092;37.932;2023-12-20T13:37:49;1.48;;;0.22;;
80157;SDS011;74139;59.092;37.932;2023-12-20T13:40:15;0.38;;;0.20;;
80157;SDS011;74139;59.092;37.932;2023-12-20T13:42:40;2.40;;;0.30;;
80157;SDS011;74139;59.092;37.932;2023-12-20T13:45:07;0.65;;;0.25;;
80157;SDS011;74139;59.092;37.932;2023-12-20T13:47:33;0.65;;;0.13;;
80157;SDS011;74139;59.092;37.932;2023-12-20T13:49:59;2.35;;;0.25;;
80157;SDS011;74139;59.092;37.932;2023-12-20T13:52:25;0.30;;;0.17;;
80157;SDS011;74139;59.092;37.932;2023-12-20T13:54:50;0.57;;;0.20;;
80157;SDS011;74139;59.092;37.932;2023-12-20T13:57:19;0.28;;;0.20;;
80157;SDS011;74139;59.092;37.932;2023-12-20T13:59:45;0.95;;;0.10;;
80157;SDS011;74139;59.092;37.932;2023-12-20T14:02:11;0.60;;;0.17;;
80157;SDS011;74139;59.092;37.932;2023-12-20T14:04:37;1.27;;;0.22;;
80157;SDS011;74139;59.092;37.932;2023-12-20T14:07:05;1.08;;;0.20;;
80157;SDS011;74139;59.092;37.932;2023-12-20T14:09:33;0.70;;;0.28;;
80157;SDS011;74139;59.092;37.932;2023-12-20T14:14:25;0.60;;;0.22;;
80157;SDS011;74139;59.092;37.932;2023-12-20T14:16:51;0.10;;;0.10;;
80157;SDS011;74139;59.092;37.932;2023-12-20T14:19:18;0.82;;;0.20;;
80157;SDS011;74139;59.092;37.932;2023-12-20T14:21:44;1.25;;;0.22;;
80157;SDS011;74139;59.092;37.932;2023-12-20T14:24:12;0.60;;;0.20;;
80157;SDS011;74139;59.092;37.932;2023-12-20T14:26:40;4.95;;;0.80;;
80157;SDS011;74139;59.092;37.932;2023-12-20T14:29:09;3.17;;;0.68;;
80157;SDS011;74139;59.092;37.932;2023-12-20T14:31:35;1.77;;;0.57;;
80157;SDS011;74139;59.092;37.932;2023-12-20T14:34:02;2.50;;;0.93;;
80157;SDS011;74139;59.092;37.932;2023-12-20T14:36:30;2.55;;;0.73;;
80157;SDS011;74139;59.092;37.932;2023-12-20T14:38:56;4.47;;;1.13;;
80157;SDS011;74139;59.092;37.932;2023-12-20T14:41:22;5.57;;;1.23;;
80157;SDS011;74139;59.092;37.932;2023-12-20T14:43:50;4.18;;;0.98;;
80157;SDS011;74139;59.092;37.932;2023-12-20T14:46:17;6.25;;;1.05;;
80157;SDS011;74139;59.092;37.932;2023-12-20T14:48:44;4.32;;;1.30;;
80157;SDS011;74139;59.092;37.932;2023-12-20T14:51:10;4.05;;;1.70;;